createdAt,value
2024-02-26T00:00:42.086Z,61.22
2024-02-26T00:03:48.908Z,64.55
2024-02-26T00:06:56.128Z,65.97
2024-02-26T00:10:02.380Z,64.93
2024-02-26T00:13:06.957Z,64.07
2024-02-26T00:16:13.217Z,63.68
2024-02-26T00:19:19.479Z,62.80
2024-02-26T00:22:25.784Z,62.50
2024-02-26T00:25:30.286Z,62.38
2024-02-26T00:28:36.472Z,62.43
2024-02-26T00:31:41.221Z,62.06
2024-02-26T00:34:47.430Z,62.02
2024-02-26T00:37:52.074Z,61.93
2024-02-26T00:40:58.296Z,62.04
2024-02-26T00:44:02.773Z,61.87
2024-02-26T00:47:09.259Z,61.58
2024-02-26T00:50:15.648Z,61.13
2024-02-26T00:53:21.734Z,60.88
2024-02-26T00:56:27.927Z,60.73
2024-02-26T00:59:32.508Z,60.66
2024-02-26T01:02:39.718Z,60.70
2024-02-26T01:05:46.335Z,60.51
2024-02-26T01:08:52.787Z,60.66
2024-02-26T01:11:59.053Z,60.77
2024-02-26T01:15:05.830Z,60.79
2024-02-26T01:18:12.632Z,60.74
2024-02-26T01:21:19.008Z,60.53
2024-02-26T01:24:25.143Z,60.61
2024-02-26T01:27:31.311Z,60.62
2024-02-26T01:30:36.048Z,60.79
2024-02-26T01:33:42.221Z,60.91
2024-02-26T01:36:48.883Z,60.65
2024-02-26T01:39:55.075Z,60.81
2024-02-26T01:42:59.523Z,60.84
2024-02-26T01:46:06.417Z,61.27
2024-02-26T01:49:14.842Z,61.32
2024-02-26T01:52:22.858Z,61.29
2024-02-26T01:55:30.368Z,61.35
2024-02-26T01:58:38.480Z,61.51
2024-02-26T02:01:47.453Z,61.46
2024-02-26T02:04:53.942Z,61.55
2024-02-26T02:08:01.185Z,61.56
2024-02-26T02:11:08.915Z,61.59
2024-02-26T02:14:15.161Z,61.39
2024-02-26T02:17:19.713Z,61.32
2024-02-26T02:20:34.432Z,61.47
2024-02-26T02:23:40.611Z,61.68
2024-02-26T02:26:45.192Z,61.62
2024-02-26T02:29:52.078Z,61.59
2024-02-26T02:33:00.381Z,61.33
2024-02-26T02:36:11.480Z,61.21
2024-02-26T02:39:17.910Z,61.33
2024-02-26T02:42:24.120Z,61.45
2024-02-26T02:45:28.590Z,61.68
2024-02-26T02:48:34.834Z,61.63
2024-02-26T02:51:40.967Z,61.48
2024-02-26T02:54:48.310Z,61.21
2024-02-26T02:57:54.394Z,61.08
2024-02-26T03:01:02.107Z,61.04
2024-02-26T03:04:08.858Z,61.21
2024-02-26T03:07:15.028Z,61.20
2024-02-26T03:10:19.521Z,61.07
2024-02-26T03:13:25.740Z,61.05
2024-02-26T03:16:30.482Z,61.25
2024-02-26T03:19:36.649Z,61.38
2024-02-26T03:22:42.414Z,61.86
2024-02-26T03:25:49.450Z,62.17
2024-02-26T03:28:55.652Z,62.13
2024-02-26T03:32:00.194Z,62.75
2024-02-26T03:35:08.671Z,63.70
2024-02-26T03:38:15.401Z,64.10
2024-02-26T03:41:21.529Z,64.02
2024-02-26T03:44:27.654Z,63.52
2024-02-26T03:47:33.791Z,63.41
2024-02-26T03:50:40.046Z,62.83
2024-02-26T03:53:44.611Z,62.76
2024-02-26T03:56:50.937Z,62.84
2024-02-26T03:59:55.598Z,62.32
2024-02-26T04:03:02.388Z,62.29
2024-02-26T04:06:10.694Z,62.08
2024-02-26T04:09:17.783Z,61.93
2024-02-26T04:12:24.180Z,61.68
2024-02-26T04:15:30.576Z,61.99
2024-02-26T04:18:36.968Z,61.96
2024-02-26T04:21:45.113Z,62.14
2024-02-26T04:24:51.256Z,62.06
2024-02-26T04:27:57.382Z,62.04
2024-02-26T04:31:03.434Z,61.88
2024-02-26T04:34:11.486Z,61.87
2024-02-26T04:37:19.159Z,62.65
2024-02-26T04:40:25.186Z,62.74
2024-02-26T04:43:31.274Z,62.38
2024-02-26T04:46:37.366Z,62.02
2024-02-26T04:49:43.471Z,61.86
2024-02-26T04:52:49.573Z,62.26
2024-02-26T04:55:55.869Z,63.33
2024-02-26T04:59:00.441Z,63.76
2024-02-26T05:02:07.085Z,63.60
2024-02-26T05:05:14.061Z,63.42
2024-02-26T05:08:20.394Z,63.93
2024-02-26T05:11:27.041Z,64.35
2024-02-26T05:14:33.252Z,65.01
2024-02-26T05:17:39.363Z,65.61
2024-02-26T05:20:45.615Z,66.43
2024-02-26T05:23:51.851Z,66.70
2024-02-26T05:26:56.897Z,65.27
2024-02-26T05:30:03.142Z,64.46
2024-02-26T05:33:07.943Z,64.19
2024-02-26T05:36:20.054Z,64.22
2024-02-26T05:39:26.455Z,64.31
2024-02-26T05:42:31.295Z,63.60
2024-02-26T05:45:37.609Z,63.66
2024-02-26T05:48:43.907Z,64.10
2024-02-26T05:51:48.382Z,63.66
2024-02-26T05:54:54.533Z,64.67
2024-02-26T05:58:00.724Z,64.48
2024-02-26T06:01:05.350Z,64.89
2024-02-26T06:04:13.055Z,64.52
2024-02-26T06:07:19.136Z,65.21
2024-02-26T06:10:25.442Z,64.94
2024-02-26T06:13:32.534Z,64.43
2024-02-26T06:16:38.758Z,64.43
2024-02-26T06:19:44.927Z,64.32
2024-02-26T06:22:49.498Z,64.60
2024-02-26T06:25:55.710Z,64.86
2024-02-26T06:29:01.840Z,64.86
2024-02-26T06:32:09.154Z,64.61
2024-02-26T06:35:15.420Z,64.68
2024-02-26T06:38:19.911Z,65.16
2024-02-26T06:41:28.876Z,65.54
2024-02-26T06:44:35.014Z,66.15
2024-02-26T06:47:41.374Z,66.01
2024-02-26T06:50:47.734Z,66.20
2024-02-26T06:53:53.904Z,66.04
2024-02-26T06:57:00.214Z,66.28
2024-02-26T07:00:07.518Z,66.17
2024-02-26T07:03:15.420Z,66.27
2024-02-26T07:06:21.742Z,66.09
2024-02-26T07:09:26.529Z,66.23
2024-02-26T07:12:32.761Z,66.39
2024-02-26T07:15:37.385Z,66.12
2024-02-26T07:18:44.508Z,66.03
2024-02-26T07:21:50.855Z,65.68
2024-02-26T07:24:56.917Z,66.11
2024-02-26T07:28:02.984Z,66.34
2024-02-26T07:31:09.320Z,66.45
2024-02-26T07:34:15.800Z,66.04
2024-02-26T07:37:21.879Z,66.03
2024-02-26T07:40:28.121Z,65.93
2024-02-26T07:43:32.629Z,65.81
2024-02-26T07:46:38.803Z,65.90
2024-02-26T07:49:45.495Z,65.55
2024-02-26T07:52:52.517Z,65.18
2024-02-26T07:55:58.733Z,65.00
2024-02-26T07:59:04.818Z,64.79
2024-02-26T08:02:11.004Z,64.85
2024-02-26T08:05:17.336Z,64.88
2024-02-26T08:08:21.748Z,64.70
2024-02-26T08:11:28.007Z,64.67
2024-02-26T08:14:33.992Z,64.69
2024-02-26T08:17:38.646Z,65.25
2024-02-26T08:20:44.979Z,65.73
2024-02-26T08:23:49.574Z,65.59
2024-02-26T08:26:56.003Z,65.93
2024-02-26T08:30:03.126Z,65.38
2024-02-26T08:33:09.547Z,65.44
2024-02-26T08:36:14.314Z,64.75
2024-02-26T08:39:20.725Z,64.60
2024-02-26T08:42:26.874Z,64.71
2024-02-26T08:45:31.580Z,65.69
2024-02-26T08:48:37.824Z,64.97
2024-02-26T08:51:45.156Z,64.28
2024-02-26T08:54:51.177Z,64.44
2024-02-26T08:57:57.295Z,64.05
2024-02-26T09:01:03.506Z,63.66
2024-02-26T09:04:08.145Z,64.16
2024-02-26T09:07:14.269Z,64.17
2024-02-26T09:10:18.901Z,62.96
2024-02-26T09:13:25.084Z,63.34
2024-02-26T09:16:29.552Z,63.38
2024-02-26T09:19:35.986Z,62.48
2024-02-26T09:22:42.235Z,62.45
2024-02-26T09:25:47.044Z,61.87
2024-02-26T09:28:53.229Z,60.79
2024-02-26T09:31:57.797Z,59.81
2024-02-26T09:35:04.809Z,58.79
2024-02-26T09:38:11.123Z,57.78
2024-02-26T09:41:18.938Z,58.74
2024-02-26T09:44:26.593Z,60.29
2024-02-26T09:47:35.647Z,61.62
2024-02-26T09:50:43.483Z,62.10
2024-02-26T09:53:53.716Z,60.81
2024-02-26T09:57:04.835Z,59.84
2024-02-26T10:00:17.141Z,57.88
2024-02-26T10:03:27.445Z,57.36
2024-02-26T10:06:34.106Z,58.71
2024-02-26T10:09:40.694Z,59.21
2024-02-26T10:12:47.031Z,61.42
2024-02-26T10:15:53.163Z,61.45
2024-02-26T10:18:59.905Z,59.46
2024-02-26T10:22:07.480Z,59.65
2024-02-26T10:25:14.186Z,58.92
2024-02-26T10:28:20.648Z,58.96
2024-02-26T10:31:27.124Z,59.90
2024-02-26T10:34:33.710Z,61.29
2024-02-26T10:37:40.001Z,60.88
2024-02-26T10:40:46.059Z,59.21
2024-02-26T10:43:50.582Z,56.84
2024-02-26T10:46:57.933Z,56.70
2024-02-26T10:50:06.082Z,57.57
2024-02-26T10:53:19.081Z,58.04
2024-02-26T10:56:28.290Z,57.77
2024-02-26T10:59:37.488Z,59.35
2024-02-26T11:02:47.175Z,60.05
2024-02-26T11:05:54.216Z,59.37
2024-02-26T11:09:01.747Z,59.47
2024-02-26T11:12:12.424Z,58.90
2024-02-26T11:15:20.666Z,58.95
2024-02-26T11:18:29.313Z,59.15
2024-02-26T11:21:42.376Z,59.71
2024-02-26T11:24:49.077Z,59.53
2024-02-26T11:27:59.213Z,60.09
2024-02-26T11:31:08.485Z,58.83
2024-02-26T11:34:15.556Z,57.83
2024-02-26T11:37:22.645Z,58.08
2024-02-26T11:40:29.849Z,59.14
2024-02-26T11:44:01.999Z,58.88
2024-02-26T11:47:21.014Z,58.56
2024-02-26T11:50:41.940Z,58.25
2024-02-26T11:53:51.233Z,57.42
2024-02-26T11:57:00.289Z,57.23
2024-02-26T12:00:17.966Z,56.03
2024-02-26T12:03:25.302Z,57.60
2024-02-26T12:06:32.324Z,56.45
2024-02-26T12:09:40.171Z,56.72
2024-02-26T12:12:47.459Z,57.16
2024-02-26T12:16:01.176Z,56.36
2024-02-26T12:19:09.485Z,56.41
2024-02-26T12:22:17.319Z,57.39
2024-02-26T12:25:25.041Z,57.85
2024-02-26T12:28:33.579Z,57.89
2024-02-26T12:31:41.261Z,56.55
2024-02-26T12:34:48.263Z,57.61
2024-02-26T12:37:54.861Z,56.72
2024-02-26T12:41:01.129Z,56.50
2024-02-26T12:44:08.258Z,55.71
2024-02-26T12:47:17.787Z,56.14
2024-02-26T12:50:24.282Z,55.73
2024-02-26T12:53:30.879Z,56.00
2024-02-26T12:56:37.335Z,55.28
2024-02-26T12:59:43.681Z,55.47
2024-02-26T13:02:51.200Z,55.71
2024-02-26T13:05:57.728Z,55.59
2024-02-26T13:09:04.057Z,55.83
2024-02-26T13:12:11.895Z,56.26
2024-02-26T13:15:20.975Z,56.59
2024-02-26T13:18:32.695Z,55.93
2024-02-26T13:21:39.096Z,56.17
2024-02-26T13:24:45.238Z,56.05
2024-02-26T13:27:51.261Z,56.02
2024-02-26T13:30:57.619Z,55.82
2024-02-26T13:34:04.079Z,56.45
2024-02-26T13:37:10.493Z,56.47
2024-02-26T13:40:17.584Z,56.21
2024-02-26T13:43:23.868Z,56.79
2024-02-26T13:46:30.102Z,56.96
2024-02-26T13:49:36.214Z,56.93
2024-02-26T13:52:42.473Z,56.93
2024-02-26T13:55:48.461Z,57.00
2024-02-26T13:58:52.987Z,56.85
2024-02-26T14:01:59.100Z,56.91
2024-02-26T14:05:05.594Z,57.70
2024-02-26T14:08:12.148Z,57.59
2024-02-26T14:11:18.485Z,58.29
2024-02-26T14:14:24.665Z,58.30
2024-02-26T14:17:31.275Z,58.46
2024-02-26T14:20:37.324Z,58.53
2024-02-26T14:23:41.811Z,58.60
2024-02-26T14:26:48.169Z,58.53
2024-02-26T14:29:54.618Z,59.16
2024-02-26T14:33:00.975Z,59.42
2024-02-26T14:36:08.370Z,59.16
2024-02-26T14:39:14.845Z,59.35
2024-02-26T14:42:20.992Z,59.19
2024-02-26T14:45:27.162Z,59.30
2024-02-26T14:48:34.177Z,59.21
2024-02-26T14:51:40.517Z,59.41
2024-02-26T14:54:46.719Z,59.45
2024-02-26T14:57:52.996Z,59.29
2024-02-26T15:00:59.008Z,59.77
2024-02-26T15:04:05.219Z,59.78
2024-02-26T15:07:15.792Z,59.67
2024-02-26T15:10:22.583Z,60.18
2024-02-26T15:13:27.283Z,60.41
2024-02-26T15:16:33.477Z,60.38
2024-02-26T15:19:39.878Z,60.71
2024-02-26T15:22:46.349Z,60.81
2024-02-26T15:25:52.605Z,61.34
2024-02-26T15:28:58.768Z,61.45
2024-02-26T15:32:04.750Z,61.46
2024-02-26T15:35:12.611Z,61.75
2024-02-26T15:38:18.882Z,61.90
2024-02-26T15:41:25.241Z,63.54
2024-02-26T15:44:31.345Z,63.95
2024-02-26T15:47:36.527Z,62.47
2024-02-26T15:50:43.573Z,61.77
2024-02-26T15:53:50.963Z,59.23
2024-02-26T15:56:57.783Z,58.67
2024-02-26T16:00:07.782Z,59.32
2024-02-26T16:03:15.362Z,59.71
2024-02-26T16:06:28.439Z,60.35
2024-02-26T16:09:34.784Z,60.70
2024-02-26T16:12:44.061Z,61.45
2024-02-26T16:15:56.206Z,61.80
2024-02-26T16:19:12.539Z,63.48
2024-02-26T16:22:18.769Z,63.99
2024-02-26T16:25:25.605Z,62.91
2024-02-26T16:28:31.629Z,61.99
2024-02-26T16:31:37.753Z,61.08
2024-02-26T16:34:42.584Z,59.44
2024-02-26T16:37:48.609Z,58.82
2024-02-26T16:40:54.754Z,59.54
2024-02-26T16:43:59.376Z,60.58
2024-02-26T16:47:04.179Z,60.72
2024-02-26T16:50:10.335Z,60.54
2024-02-26T16:53:14.993Z,61.60
2024-02-26T16:56:19.564Z,61.43
2024-02-26T16:59:29.034Z,61.58
2024-02-26T17:02:33.976Z,61.74
2024-02-26T17:05:38.540Z,64.17
2024-02-26T17:08:43.369Z,66.81
2024-02-26T17:11:48.450Z,66.54
2024-02-26T17:14:53.628Z,65.35
2024-02-26T17:17:58.261Z,64.30
2024-02-26T17:21:02.813Z,63.61
2024-02-26T17:24:09.390Z,62.90
2024-02-26T17:27:14.084Z,62.24
2024-02-26T17:30:18.615Z,61.76
2024-02-26T17:33:23.226Z,61.30
2024-02-26T17:36:27.720Z,60.78
2024-02-26T17:39:32.794Z,60.49
2024-02-26T17:42:37.976Z,60.10
2024-02-26T17:45:42.372Z,59.95
2024-02-26T17:48:47.121Z,59.98
2024-02-26T17:51:51.816Z,59.31
2024-02-26T17:54:56.393Z,57.51
2024-02-26T17:58:01.083Z,58.15
2024-02-26T18:01:05.838Z,58.70
2024-02-26T18:04:10.345Z,59.27
2024-02-26T18:07:14.916Z,60.41
2024-02-26T18:10:20.441Z,60.91
2024-02-26T18:13:25.219Z,61.95
2024-02-26T18:16:30.118Z,65.45
2024-02-26T18:19:35.007Z,66.02
2024-02-26T18:22:39.896Z,65.09
2024-02-26T18:25:44.501Z,64.60
2024-02-26T18:28:49.084Z,63.73
2024-02-26T18:31:53.639Z,62.89
2024-02-26T18:34:58.181Z,62.69
2024-02-26T18:38:03.404Z,62.48
2024-02-26T18:41:08.049Z,62.47
2024-02-26T18:44:12.670Z,62.34
2024-02-26T18:47:18.345Z,62.33
2024-02-26T18:50:22.832Z,62.58
2024-02-26T18:53:27.410Z,62.81
2024-02-26T18:56:32.144Z,62.87
2024-02-26T18:59:36.664Z,62.68
2024-02-26T19:02:41.277Z,62.49
2024-02-26T19:05:45.854Z,61.90
2024-02-26T19:08:50.618Z,61.80
2024-02-26T19:11:56.800Z,61.71
2024-02-26T19:15:01.702Z,61.54
2024-02-26T19:18:07.539Z,60.67
2024-02-26T19:21:12.256Z,60.18
2024-02-26T19:24:18.308Z,60.05
2024-02-26T19:27:22.958Z,60.71
2024-02-26T19:30:27.561Z,61.61
2024-02-26T19:33:32.197Z,62.12
2024-02-26T19:36:37.208Z,62.18
2024-02-26T19:39:41.830Z,61.66
2024-02-26T19:42:46.687Z,61.45
2024-02-26T19:45:51.339Z,61.82
2024-02-26T19:48:58.847Z,62.60
2024-02-26T19:52:03.366Z,62.92
2024-02-26T19:55:08.890Z,63.06
2024-02-26T19:58:13.468Z,63.10
2024-02-26T20:01:18.133Z,63.51
2024-02-26T20:04:22.840Z,63.59
2024-02-26T20:07:27.743Z,63.71
2024-02-26T20:10:32.290Z,64.07
2024-02-26T20:13:38.855Z,64.09
2024-02-26T20:16:43.485Z,63.99
2024-02-26T20:19:48.093Z,64.14
2024-02-26T20:22:52.635Z,64.60
2024-02-26T20:25:59.599Z,64.83
2024-02-26T20:29:04.416Z,64.78
2024-02-26T20:32:09.017Z,64.88
2024-02-26T20:35:13.502Z,64.48
2024-02-26T20:38:19.031Z,63.69
2024-02-26T20:41:24.647Z,63.42
2024-02-26T20:44:29.288Z,63.39
2024-02-26T20:47:33.777Z,63.46
2024-02-26T20:50:38.606Z,63.22
2024-02-26T20:53:44.377Z,63.45
2024-02-26T20:56:49.431Z,63.35
2024-02-26T20:59:54.093Z,63.35
2024-02-26T21:02:58.919Z,63.24
2024-02-26T21:06:04.972Z,62.82
2024-02-26T21:09:09.796Z,63.52
2024-02-26T21:12:14.509Z,63.85
2024-02-26T21:15:19.333Z,63.05
2024-02-26T21:18:24.258Z,63.56
2024-02-26T21:21:29.767Z,64.03
2024-02-26T21:24:34.460Z,64.27
2024-02-26T21:27:39.097Z,63.99
2024-02-26T21:30:43.651Z,63.64
2024-02-26T21:33:48.890Z,62.66
2024-02-26T21:36:53.603Z,62.42
2024-02-26T21:39:58.056Z,62.26
2024-02-26T21:43:03.129Z,63.18
2024-02-26T21:46:07.864Z,63.16
2024-02-26T21:49:12.554Z,62.13
2024-02-26T21:52:18.661Z,61.82
2024-02-26T21:55:24.183Z,61.46
2024-02-26T21:58:28.842Z,61.29
2024-02-26T22:01:33.614Z,61.29
2024-02-26T22:04:38.480Z,61.84
2024-02-26T22:07:44.361Z,61.80
2024-02-26T22:10:49.764Z,61.45
2024-02-26T22:13:54.404Z,61.28
2024-02-26T22:16:58.971Z,61.87
2024-02-26T22:20:06.831Z,62.64
2024-02-26T22:23:11.458Z,63.21
2024-02-26T22:26:16.554Z,62.69
2024-02-26T22:29:21.438Z,61.72
2024-02-26T22:32:26.171Z,61.30
2024-02-26T22:35:30.706Z,61.12
2024-02-26T22:38:35.264Z,61.15
2024-02-26T22:41:44.869Z,61.49
2024-02-26T22:44:49.401Z,62.21
2024-02-26T22:47:54.073Z,62.87
2024-02-26T22:50:58.863Z,62.15
2024-02-26T22:54:03.469Z,62.03
2024-02-26T22:57:08.167Z,62.46
2024-02-26T23:00:26.449Z,62.87
2024-02-26T23:03:31.144Z,61.95
2024-02-26T23:06:35.958Z,61.64
2024-02-26T23:09:40.658Z,61.58
2024-02-26T23:12:45.591Z,61.44
2024-02-26T23:15:54.065Z,61.39
2024-02-26T23:18:58.637Z,61.39
2024-02-26T23:22:03.153Z,62.00
2024-02-26T23:25:09.115Z,63.31
2024-02-26T23:28:13.651Z,63.73
2024-02-26T23:31:18.196Z,64.04
2024-02-26T23:34:22.771Z,64.42
2024-02-26T23:37:27.777Z,64.20
2024-02-26T23:40:35.180Z,63.65
2024-02-26T23:43:39.903Z,64.23
2024-02-26T23:46:44.717Z,64.21
2024-02-26T23:49:50.156Z,63.50
2024-02-26T23:52:54.732Z,62.58
2024-02-26T23:55:59.388Z,62.54
2024-02-26T23:59:03.942Z,62.60
